Time;durP1;ratioP1;P1;durP2;ratioP2;P2;SDS_P1;SDS_P2;PMS_P1;PMS_P2;Temp;Humidity;BMP_temperature;BMP_pressure;BME280_temperature;BME280_humidity;BME280_pressure;Samples;Min_cycle;Max_cycle;Signal;HPM_P1;HPM_P2
2022/09/12 00:00:49;;;;;;;21.00;11.75;;;;;;;12.98;99.36;101474.13;4990903;28;20088;-76
2022/09/12 00:03:15;;;;;;;20.15;11.50;;;;;;;12.96;99.41;101474.25;4989745;28;20464;-75
2022/09/12 00:05:43;;;;;;;19.40;10.15;;;;;;;12.92;99.33;101469.50;4971253;28;20049;-76
2022/09/12 00:08:09;;;;;;;19.08;10.82;;;;;;;12.83;99.81;101466.88;4990375;28;20074;-75
2022/09/12 00:10:42;;;;;;;19.33;10.90;;;;;;;12.78;99.81;101463.09;4988379;28;20037;-75
2022/09/12 00:13:09;;;;;;;20.65;11.10;;;;;;;12.74;99.87;101459.97;4985678;28;20141;-75
2022/09/12 00:15:42;;;;;;;19.10;10.88;;;;;;;12.73;99.87;101452.31;4974739;28;20030;-78
2022/09/12 00:18:11;;;;;;;20.10;11.13;;;;;;;12.70;99.96;101455.25;4988481;28;20093;-74
2022/09/12 00:20:41;;;;;;;19.55;10.38;;;;;;;12.65;99.88;101453.91;4989351;28;20177;-74
2022/09/12 00:23:07;;;;;;;17.08;10.55;;;;;;;12.60;100.00;101448.38;4981588;28;20037;-75
2022/09/12 00:25:32;;;;;;;17.83;10.23;;;;;;;12.56;99.93;101454.81;4970149;28;20031;-76
2022/09/12 00:27:57;;;;;;;16.98;10.60;;;;;;;12.53;100.00;101451.75;4987422;28;20564;-74
2022/09/12 00:30:23;;;;;;;18.13;9.93;;;;;;;12.51;100.00;101457.09;4985580;28;20459;-74
2022/09/12 00:32:50;;;;;;;21.98;10.63;;;;;;;12.52;100.00;101460.50;4985682;28;20326;-76
2022/09/12 00:35:15;;;;;;;17.48;9.95;;;;;;;12.50;100.00;101457.22;4987317;28;20125;-75
2022/09/12 00:37:41;;;;;;;17.27;9.75;;;;;;;12.46;100.00;101452.31;4986101;28;20547;-75
2022/09/12 00:40:07;;;;;;;19.48;10.90;;;;;;;12.46;99.92;101454.94;4982869;28;20037;-75
2022/09/12 00:42:32;;;;;;;21.10;11.13;;;;;;;12.45;99.98;101442.91;4987270;28;20038;-74
2022/09/12 00:44:57;;;;;;;23.67;10.93;;;;;;;12.41;99.82;101446.78;4971403;28;20479;-75
2022/09/12 00:47:28;;;;;;;20.25;10.40;;;;;;;12.36;99.86;101443.00;4970980;28;20042;-74
2022/09/12 00:50:04;;;;;;;20.60;11.02;;;;;;;12.31;100.00;101442.63;4988954;28;20038;-75
2022/09/12 00:52:41;;;;;;;19.45;10.27;;;;;;;12.26;100.00;101443.06;4993518;28;20125;-74
2022/09/12 00:55:21;;;;;;;21.60;11.27;;;;;;;12.21;100.00;101435.75;4992418;28;20038;-74
2022/09/12 00:57:56;;;;;;;15.30;8.82;;;;;;;12.17;100.00;101436.22;4983341;28;20488;-75
2022/09/12 01:00:24;;;;;;;15.65;9.25;;;;;;;12.19;100.00;101432.47;4985499;28;20046;-75
2022/09/12 01:03:04;;;;;;;18.08;9.40;;;;;;;12.23;100.00;101433.00;4967029;28;20103;-75
2022/09/12 01:05:33;;;;;;;16.10;9.05;;;;;;;12.25;100.00;101437.06;4986005;28;20654;-75
2022/09/12 01:08:02;;;;;;;16.92;9.32;;;;;;;12.28;100.00;101435.94;4988797;28;20104;-75
2022/09/12 01:10:28;;;;;;;19.63;10.57;;;;;;;12.30;100.00;101436.63;4987375;28;20038;-75
2022/09/12 01:12:54;;;;;;;19.25;11.20;;;;;;;12.28;100.00;101430.75;4987670;28;20127;-74
2022/09/12 01:15:19;;;;;;;16.58;10.18;;;;;;;12.25;100.00;101434.47;4971243;28;20127;-74
2022/09/12 01:18:13;;;;;;;18.77;11.18;;;;;;;12.20;100.00;101426.28;4988394;28;20069;-75
2022/09/12 01:21:00;;;;;;;17.92;10.35;;;;;;;12.15;100.00;101438.13;4974116;28;20045;-74
2022/09/12 01:23:32;;;;;;;20.63;10.68;;;;;;;12.10;100.00;101430.78;4957411;28;20058;-75
2022/09/12 01:26:31;;;;;;;28.48;9.93;;;;;;;12.04;100.00;101436.59;4984746;28;20035;-74
2022/09/12 01:29:31;;;;;;;16.02;9.57;;;;;;;11.97;100.00;101423.38;4988889;28;20043;-74
2022/09/12 01:32:15;;;;;;;18.17;9.10;;;;;;;11.92;100.00;101419.59;4981319;28;20035;-74
2022/09/12 01:34:55;;;;;;;15.65;9.05;;;;;;;11.87;100.00;101415.63;4975124;28;20121;-74
2022/09/12 01:37:33;;;;;;;16.88;7.95;;;;;;;11.87;100.00;101420.00;4986179;28;20120;-74
2022/09/12 01:40:15;;;;;;;12.57;7.85;;;;;;;11.89;100.00;101415.47;4981930;28;20423;-74
2022/09/12 01:43:14;;;;;;;14.68;8.63;;;;;;;11.92;100.00;101415.19;4987425;28;20590;-74
2022/09/12 01:45:49;;;;;;;18.15;9.10;;;;;;;11.95;100.00;101414.91;4984242;28;20046;-74
2022/09/12 01:48:25;;;;;;;18.00;9.65;;;;;;;11.96;100.00;101408.75;4987020;28;20046;-74
2022/09/12 01:51:22;;;;;;;18.67;9.88;;;;;;;11.93;100.00;101405.63;4985600;28;20093;-74
2022/09/12 01:54:02;;;;;;;19.88;9.90;;;;;;;11.91;100.00;101407.56;4986124;28;20050;-74
2022/09/12 01:56:32;;;;;;;22.38;9.95;;;;;;;11.93;100.00;101408.22;4969454;28;20062;-74
2022/09/12 01:59:07;;;;;;;18.95;9.60;;;;;;;11.96;100.00;101406.16;4985847;28;20030;-73
2022/09/12 02:01:55;;;;;;;23.30;12.88;;;;;;;11.99;100.00;101407.63;4971272;28;20034;-75
2022/09/12 02:04:30;;;;;;;25.70;12.55;;;;;;;12.00;100.00;101398.88;4985518;28;20042;-74
2022/09/12 02:07:07;;;;;;;30.33;13.98;;;;;;;12.01;100.00;101396.09;4986279;28;20128;-74
2022/09/12 02:09:41;;;;;;;25.50;13.48;;;;;;;12.02;100.00;101396.94;4982083;28;20027;-74
2022/09/12 02:12:10;;;;;;;31.45;14.80;;;;;;;12.00;100.00;101391.06;4982057;28;20042;-74
2022/09/12 02:14:40;;;;;;;29.60;14.45;;;;;;;11.98;100.00;101385.19;4979381;28;20077;-74
2022/09/12 02:17:10;;;;;;;27.08;14.38;;;;;;;11.94;100.00;101383.88;4986438;28;20480;-74
2022/09/12 02:19:41;;;;;;;26.20;13.30;;;;;;;11.86;100.00;101377.59;4987479;28;20088;-74
2022/09/12 02:22:10;;;;;;;22.88;11.52;;;;;;;11.80;100.00;101377.41;4987506;28;20038;-74
2022/09/12 02:24:39;;;;;;;24.33;11.88;;;;;;;11.76;100.00;101389.88;4982858;28;20026;-74
2022/09/12 02:27:18;;;;;;;23.65;12.90;;;;;;;11.75;100.00;101387.41;4986305;28;20648;-74
2022/09/12 02:29:44;;;;;;;22.38;11.55;;;;;;;11.75;100.00;101379.63;4964623;28;20105;-74
2022/09/12 02:32:35;;;;;;;23.63;12.73;;;;;;;11.73;100.00;101387.56;4985004;28;20129;-74
2022/09/12 02:35:07;;;;;;;24.45;11.52;;;;;;;11.69;100.00;101375.84;4986443;28;20054;-74
2022/09/12 02:37:54;;;;;;;24.17;11.97;;;;;;;11.65;100.00;101380.50;4989035;28;20030;-74
2022/09/12 02:40:21;;;;;;;27.58;13.20;;;;;;;11.65;100.00;101377.09;4981971;28;20456;-74
2022/09/12 02:42:47;;;;;;;27.08;13.52;;;;;;;11.65;100.00;101374.50;4968967;28;20670;-74
2022/09/12 02:45:14;;;;;;;28.55;14.30;;;;;;;11.66;100.00;101366.56;4984838;28;20045;-74
2022/09/12 02:47:45;;;;;;;31.20;15.05;;;;;;;11.65;100.00;101361.50;4969786;28;20117;-75
2022/09/12 02:50:12;;;;;;;30.63;14.23;;;;;;;11.64;100.00;101365.91;4966316;28;20043;-74
2022/09/12 02:52:38;;;;;;;31.45;14.27;;;;;;;11.65;100.00;101367.53;4987362;28;20097;-74
2022/09/12 02:55:05;;;;;;;30.90;15.93;;;;;;;11.66;100.00;101366.56;4986207;28;20030;-74
2022/09/12 02:57:31;;;;;;;31.08;15.00;;;;;;;11.69;100.00;101370.63;4986457;28;20037;-74
2022/09/12 03:00:00;;;;;;;34.95;16.45;;;;;;;11.69;100.00;101368.84;4983479;28;20043;-74
2022/09/12 03:02:26;;;;;;;32.50;16.95;;;;;;;11.68;100.00;101364.63;4992879;28;20442;-74
2022/09/12 03:05:10;;;;;;;31.10;15.20;;;;;;;11.68;100.00;101364.63;4988211;28;20034;-74
2022/09/12 03:07:54;;;;;;;30.83;15.48;;;;;;;11.67;100.00;101364.78;4986729;28;20672;-74
2022/09/12 03:10:42;;;;;;;30.30;16.05;;;;;;;11.65;100.00;101359.72;4985419;28;20046;-74
2022/09/12 03:13:21;;;;;;;34.80;16.55;;;;;;;11.66;100.00;101361.38;4973042;28;20078;-74
2022/09/12 03:16:03;;;;;;;33.58;16.98;;;;;;;11.65;100.00;101357.13;4975612;28;20045;-74
2022/09/12 03:18:57;;;;;;;36.25;17.15;;;;;;;11.63;100.00;101363.44;4983070;28;20038;-74
2022/09/12 03:21:36;;;;;;;36.67;16.90;;;;;;;11.61;100.00;101366.19;4988618;28;20054;-74
2022/09/12 03:24:20;;;;;;;40.13;17.20;;;;;;;11.58;100.00;101357.88;4989927;28;20085;-74
2022/09/12 03:27:07;;;;;;;37.35;17.10;;;;;;;11.58;100.00;101368.25;4988077;28;20046;-74
2022/09/12 03:29:34;;;;;;;46.22;21.45;;;;;;;11.68;100.00;101356.84;4972416;28;20058;-73
2022/09/12 03:31:59;;;;;;;44.00;19.27;;;;;;;11.61;100.00;101353.19;4989113;28;20053;-74
2022/09/12 03:34:26;;;;;;;41.15;18.42;;;;;;;11.56;100.00;101360.63;4990288;28;20042;-74
2022/09/12 03:36:54;;;;;;;41.63;19.73;;;;;;;11.56;100.00;101358.03;4988554;28;20037;-74
2022/09/12 03:39:20;;;;;;;37.42;17.65;;;;;;;11.54;100.00;101359.94;4972710;28;20015;-74
2022/09/12 03:41:45;;;;;;;44.03;19.90;;;;;;;11.55;100.00;101364.19;4988726;28;20045;-74
2022/09/12 03:44:11;;;;;;;42.75;19.63;;;;;;;11.56;100.00;101362.41;4988120;28;20423;-74
2022/09/12 03:46:36;;;;;;;45.40;21.73;;;;;;;11.56;100.00;101365.81;4988873;28;20088;-74
2022/09/12 03:49:02;;;;;;;47.63;20.85;;;;;;;11.56;100.00;101352.81;4984148;28;20084;-74
2022/09/12 03:51:27;;;;;;;45.65;20.38;;;;;;;11.55;100.00;101348.63;4990289;28;20042;-74
2022/09/12 03:53:53;;;;;;;47.33;21.27;;;;;;;11.63;100.00;101360.84;4989287;28;20030;-74
2022/09/12 03:56:19;;;;;;;55.67;22.75;;;;;;;11.62;100.00;101360.03;4972797;28;20026;-74
2022/09/12 03:58:45;;;;;;;51.08;23.38;;;;;;;11.69;100.00;101349.84;4987915;28;20069;-74
2022/09/12 04:01:17;;;;;;;53.55;24.77;;;;;;;11.67;100.00;101352.59;4989968;28;20073;-74
2022/09/12 04:03:44;;;;;;;57.60;24.42;;;;;;;11.70;100.00;101354.09;4989267;28;20042;-73
2022/09/12 04:06:12;;;;;;;61.95;24.67;;;;;;;11.69;100.00;101353.25;4990460;28;20038;-74
2022/09/12 04:08:38;;;;;;;53.28;23.77;;;;;;;11.72;100.00;101352.16;4988490;28;20031;-74
2022/09/12 04:11:06;;;;;;;55.33;23.42;;;;;;;11.70;100.00;101348.91;4987882;28;20124;-74
2022/09/12 04:13:33;;;;;;;58.80;25.60;;;;;;;11.71;100.00;101349.72;4986546;28;20034;-74
2022/09/12 04:15:59;;;;;;;63.75;25.70;;;;;;;11.82;100.00;101352.88;4985179;28;20038;-74
2022/09/12 04:18:25;;;;;;;60.35;26.48;;;;;;;11.83;100.00;101351.94;4987208;28;20034;-74
2022/09/12 04:20:50;;;;;;;62.00;25.58;;;;;;;11.82;100.00;101342.50;4988444;28;20108;-74
2022/09/12 04:23:16;;;;;;;56.55;25.73;;;;;;;11.79;100.00;101344.56;4987809;28;20046;-74
2022/09/12 04:25:41;;;;;;;62.70;26.13;;;;;;;11.80;100.00;101341.03;4987581;28;20037;-74
2022/09/12 04:28:07;;;;;;;57.38;24.98;;;;;;;11.68;100.00;101341.25;4987139;28;20097;-74
2022/09/12 04:30:33;;;;;;;61.00;27.38;;;;;;;11.66;100.00;101344.97;4988698;28;20030;-73
2022/09/12 04:32:59;;;;;;;59.22;25.90;;;;;;;11.72;100.00;101335.78;4985069;28;20053;-74
2022/09/12 04:35:25;;;;;;;59.38;25.33;;;;;;;11.77;100.00;101339.56;4986604;28;20655;-73
2022/09/12 04:37:50;;;;;;;56.78;24.17;;;;;;;11.80;100.00;101338.41;4990630;28;20507;-74
2022/09/12 04:40:15;;;;;;;62.88;26.42;;;;;;;11.78;100.00;101341.16;4985432;28;20057;-75
2022/09/12 04:42:41;;;;;;;60.25;25.30;;;;;;;11.73;100.00;101339.97;4987554;28;20110;-74
2022/09/12 04:45:07;;;;;;;59.65;24.52;;;;;;;11.69;100.00;101335.06;4988813;28;20034;-74
2022/09/12 04:47:32;;;;;;;60.65;25.60;;;;;;;11.79;100.00;101339.38;4987726;28;20030;-74
2022/09/12 04:49:58;;;;;;;63.65;26.67;;;;;;;11.81;100.00;101334.84;4987632;28;20044;-74
2022/09/12 04:52:23;;;;;;;59.47;26.42;;;;;;;11.79;100.00;101332.41;4978124;28;20030;-74
2022/09/12 04:54:48;;;;;;;64.93;26.92;;;;;;;11.83;100.00;101332.94;4988534;28;20124;-74
2022/09/12 04:57:14;;;;;;;65.15;27.02;;;;;;;11.88;100.00;101330.69;4988066;28;20038;-74
2022/09/12 04:59:39;;;;;;;64.43;26.83;;;;;;;11.91;100.00;101325.22;4972938;28;20030;-74
2022/09/12 05:02:05;;;;;;;57.33;25.70;;;;;;;11.90;100.00;101323.56;4987668;28;20499;-75
2022/09/12 05:04:30;;;;;;;60.72;26.58;;;;;;;11.87;100.00;101322.06;4989517;28;20368;-74
2022/09/12 05:06:56;;;;;;;56.33;25.35;;;;;;;11.90;100.00;101333.16;4986731;28;20048;-75
2022/09/12 05:09:21;;;;;;;69.95;27.55;;;;;;;11.91;100.00;101314.00;4986019;28;20038;-75
2022/09/12 05:11:47;;;;;;;55.90;24.20;;;;;;;11.89;100.00;101321.94;4990347;28;20042;-74
2022/09/12 05:14:12;;;;;;;63.30;26.02;;;;;;;11.96;100.00;101324.75;4987536;28;20026;-74
2022/09/12 05:16:39;;;;;;;52.25;24.13;;;;;;;11.94;100.00;101327.53;4980918;28;20061;-74
2022/09/12 05:19:05;;;;;;;56.17;25.95;;;;;;;11.95;100.00;101333.53;4981658;28;20038;-74
2022/09/12 05:21:30;;;;;;;59.60;25.45;;;;;;;11.98;100.00;101328.00;4971370;28;20057;-74
2022/09/12 05:24:00;;;;;;;56.67;25.67;;;;;;;12.04;100.00;101332.63;4987813;28;20045;-74
2022/09/12 05:26:26;;;;;;;55.63;24.17;;;;;;;12.04;100.00;101330.03;4986435;28;20092;-74
2022/09/12 05:28:52;;;;;;;58.55;24.83;;;;;;;12.08;100.00;101334.75;4985314;28;20507;-75
2022/09/12 05:31:20;;;;;;;54.20;25.33;;;;;;;12.10;100.00;101334.59;4990155;28;20043;-74
2022/09/12 05:33:48;;;;;;;58.42;25.23;;;;;;;12.18;100.00;101326.84;4986624;28;20387;-75
2022/09/12 05:36:16;;;;;;;55.42;24.60;;;;;;;12.24;100.00;101328.84;4984197;28;20043;-74
2022/09/12 05:38:42;;;;;;;56.67;23.88;;;;;;;12.26;100.00;101332.09;4967903;28;20162;-74
2022/09/12 05:41:13;;;;;;;56.47;25.13;;;;;;;12.33;100.00;101331.47;4987298;28;20042;-73
2022/09/12 05:43:41;;;;;;;49.50;22.27;;;;;;;12.35;100.00;101324.34;4983176;28;20054;-74
2022/09/12 05:46:18;;;;;;;52.65;22.17;;;;;;;12.47;100.00;101333.53;4986404;28;20411;-74
2022/09/12 05:48:45;;;;;;;44.45;21.27;;;;;;;12.49;100.00;101335.94;4982821;28;20069;-74
2022/09/12 05:51:13;;;;;;;55.72;22.70;;;;;;;12.60;100.00;101333.91;4987629;28;20062;-74
2022/09/12 05:53:40;;;;;;;48.30;23.10;;;;;;;12.65;100.00;101331.63;4966821;28;20668;-74
2022/09/12 05:56:08;;;;;;;50.90;21.48;;;;;;;12.64;100.00;101337.00;4986389;28;20034;-74
2022/09/12 05:58:36;;;;;;;50.05;22.55;;;;;;;12.71;100.00;101345.78;4971090;28;20475;-74
2022/09/12 06:01:13;;;;;;;51.17;21.98;;;;;;;12.68;100.00;101345.28;4985753;28;20045;-74
2022/09/12 06:03:44;;;;;;;49.38;21.50;;;;;;;12.69;100.00;101352.13;4984698;28;20092;-74
2022/09/12 06:06:14;;;;;;;55.65;23.77;;;;;;;12.86;100.00;101359.03;4986356;28;20637;-74
2022/09/12 06:08:42;;;;;;;47.58;22.00;;;;;;;12.91;100.00;101353.38;4981970;28;20125;-74
2022/09/12 06:11:10;;;;;;;41.15;20.25;;;;;;;12.90;100.00;101356.94;4984820;28;20035;-73
2022/09/12 06:13:37;;;;;;;40.88;20.50;;;;;;;12.93;100.00;101357.44;4984652;28;20056;-73
2022/09/12 06:16:05;;;;;;;50.42;23.33;;;;;;;12.95;100.00;101352.88;4985218;28;20427;-74
2022/09/12 06:18:31;;;;;;;47.88;23.02;;;;;;;13.07;100.00;101342.97;4986516;28;20089;-74
2022/09/12 06:21:00;;;;;;;46.60;21.52;;;;;;;13.12;100.00;101345.13;4986571;28;20046;-74
2022/09/12 06:23:26;;;;;;;45.47;22.60;;;;;;;13.32;100.00;101351.72;4982485;28;20030;-74
2022/09/12 06:25:51;;;;;;;47.45;21.33;;;;;;;13.36;100.00;101355.63;4967059;28;20038;-74
2022/09/12 06:28:17;;;;;;;46.83;21.38;;;;;;;13.44;100.00;101341.78;4984341;28;20042;-74
2022/09/12 06:30:42;;;;;;;37.47;21.35;;;;;;;13.51;100.00;101344.56;4985141;28;20442;-74
2022/09/12 06:33:07;;;;;;;45.80;20.02;;;;;;;13.62;100.00;101342.44;4987326;28;20081;-74
2022/09/12 06:35:37;;;;;;;43.13;18.92;;;;;;;13.78;100.00;101339.00;4983900;28;20442;-74
2022/09/12 06:38:03;;;;;;;41.20;20.60;;;;;;;13.86;100.00;101340.00;4990190;28;20058;-75
2022/09/12 06:40:29;;;;;;;38.13;19.20;;;;;;;13.94;100.00;101335.59;4990668;28;20085;-75
2022/09/12 06:42:54;;;;;;;42.30;19.67;;;;;;;14.00;100.00;101336.72;4990772;28;20117;-74
2022/09/12 06:45:31;;;;;;;37.22;18.35;;;;;;;14.07;100.00;101334.25;4989911;28;20038;-75
2022/09/12 06:47:57;;;;;;;35.15;18.05;;;;;;;14.11;100.00;101327.72;4987329;28;20030;-75
2022/09/12 06:50:22;;;;;;;42.03;20.38;;;;;;;14.20;100.00;101334.56;4990357;28;20387;-75
2022/09/12 06:52:49;;;;;;;37.22;19.05;;;;;;;14.21;100.00;101337.00;4991821;28;20042;-75
2022/09/12 06:55:14;;;;;;;38.30;18.85;;;;;;;14.18;100.00;101339.97;4987881;28;20031;-75
2022/09/12 06:57:40;;;;;;;33.00;18.58;;;;;;;14.22;100.00;101335.19;4990962;28;20483;-76
2022/09/12 07:00:06;;;;;;;39.58;18.65;;;;;;;14.17;100.00;101335.72;4970671;28;20034;-75
2022/09/12 07:02:32;;;;;;;37.22;18.60;;;;;;;14.27;100.00;101339.94;4989497;28;20039;-76
2022/09/12 07:04:57;;;;;;;35.10;17.63;;;;;;;14.29;100.00;101337.97;4985910;28;20034;-75
2022/09/12 07:07:23;;;;;;;33.60;18.00;;;;;;;14.35;100.00;101340.72;4988950;28;20475;-76
2022/09/12 07:09:49;;;;;;;34.80;18.35;;;;;;;14.47;100.00;101335.97;4980564;28;20062;-76
2022/09/12 07:12:14;;;;;;;35.88;19.30;;;;;;;14.64;100.00;101333.31;4987368;28;20048;-76
2022/09/12 07:14:40;;;;;;;39.58;19.08;;;;;;;14.94;100.00;101339.53;4971883;28;20128;-76
2022/09/12 07:17:07;;;;;;;34.03;17.25;;;;;;;15.21;100.00;101334.81;4988031;28;20053;-75
2022/09/12 07:19:33;;;;;;;36.40;17.48;;;;;;;15.38;99.30;101342.34;4989725;28;20038;-76
2022/09/12 07:21:58;;;;;;;34.95;16.65;;;;;;;15.62;97.43;101343.16;4985590;28;20053;-76
2022/09/12 07:24:23;;;;;;;33.08;16.70;;;;;;;15.88;97.34;101339.34;4990451;28;20031;-76
2022/09/12 07:26:49;;;;;;;34.33;17.10;;;;;;;15.93;94.66;101329.19;4991029;28;20038;-76
2022/09/12 07:29:15;;;;;;;29.05;16.65;;;;;;;15.92;93.62;101325.78;4986318;28;20049;-76
2022/09/12 07:31:41;;;;;;;35.13;16.75;;;;;;;15.87;93.61;101327.28;4990855;28;20038;-76
2022/09/12 07:34:07;;;;;;;33.35;17.75;;;;;;;15.83;94.80;101321.59;4989720;28;20063;-76
2022/09/12 07:36:33;;;;;;;39.58;17.27;;;;;;;15.85;94.86;101326.66;4989629;28;20094;-75
2022/09/12 07:38:59;;;;;;;36.85;17.70;;;;;;;15.93;95.30;101331.81;4989116;28;20080;-75
2022/09/12 07:41:29;;;;;;;37.08;18.88;;;;;;;15.88;95.10;101326.28;4990300;28;20065;-75
2022/09/12 07:43:58;;;;;;;34.17;18.05;;;;;;;15.74;94.73;101331.31;4990680;28;20038;-76
2022/09/12 07:46:25;;;;;;;36.08;17.40;;;;;;;15.64;95.07;101322.88;4988262;28;20042;-75
2022/09/12 07:48:52;;;;;;;34.72;17.77;;;;;;;15.53;95.75;101318.09;4984927;28;20487;-74
2022/09/12 07:51:19;;;;;;;33.42;17.58;;;;;;;15.54;95.90;101320.53;4990600;28;20101;-76
2022/09/12 07:53:45;;;;;;;33.28;17.35;;;;;;;15.45;96.46;101328.59;4990917;28;20026;-77
2022/09/12 07:56:11;;;;;;;35.50;18.05;;;;;;;15.65;96.34;101329.75;4990468;28;20042;-76
2022/09/12 07:58:39;;;;;;;32.72;17.08;;;;;;;16.07;93.89;101328.41;4990705;28;20041;-74
2022/09/12 08:01:22;;;;;;;32.53;17.58;;;;;;;16.69;90.72;101327.19;4987887;28;20045;-76
2022/09/12 08:03:51;;;;;;;32.28;17.13;;;;;;;17.22;88.37;101328.81;4986089;28;20030;-76
2022/09/12 08:06:19;;;;;;;32.47;17.83;;;;;;;17.82;86.03;101327.47;4990105;28;20116;-75
2022/09/12 08:08:46;;;;;;;34.80;16.60;;;;;;;18.07;81.98;101330.50;4989193;28;20050;-73
2022/09/12 08:11:13;;;;;;;30.55;16.58;;;;;;;18.53;79.75;101333.56;4989471;28;20064;-75
2022/09/12 08:13:41;;;;;;;31.85;16.52;;;;;;;18.62;80.48;101327.13;4985881;28;20558;-76
2022/09/12 08:16:11;;;;;;;32.70;16.90;;;;;;;19.02;79.50;101317.59;4988819;28;20038;-75
2022/09/12 08:18:36;;;;;;;30.42;15.63;;;;;;;19.62;76.32;101322.06;4983233;28;20037;-76
2022/09/12 08:21:10;;;;;;;30.20;16.77;;;;;;;19.59;74.76;101317.19;4989113;28;20030;-75
2022/09/12 08:23:36;;;;;;;27.95;16.30;;;;;;;20.12;73.07;101317.16;4980296;28;20691;-75
2022/09/12 08:26:03;;;;;;;26.90;15.45;;;;;;;20.53;70.92;101317.81;4972713;28;20042;-76
2022/09/12 08:28:31;;;;;;;25.42;15.23;;;;;;;21.07;69.41;101324.44;4988590;28;20053;-75
2022/09/12 08:31:01;;;;;;;26.13;14.85;;;;;;;21.60;67.92;101315.34;4988235;28;20069;-76
2022/09/12 08:33:32;;;;;;;27.70;14.70;;;;;;;21.73;66.64;101309.16;4987018;28;20443;-76
2022/09/12 08:36:21;;;;;;;27.80;15.10;;;;;;;21.68;66.29;101322.19;4978912;28;20571;-76
2022/09/12 08:38:48;;;;;;;30.10;15.57;;;;;;;22.07;65.07;101313.06;4985459;28;20062;-75
2022/09/12 08:41:17;;;;;;;21.58;13.43;;;;;;;21.90;65.12;101312.03;4989767;28;20081;-76
2022/09/12 08:44:20;;;;;;;22.98;14.90;;;;;;;21.43;66.99;101314.25;4985790;28;20039;-76
2022/09/12 08:47:00;;;;;;;24.48;14.65;;;;;;;20.63;69.51;101315.59;4987372;28;20057;-77
2022/09/12 08:49:32;;;;;;;23.50;14.50;;;;;;;20.57;70.74;101316.41;4985375;28;20067;-76
2022/09/12 08:52:06;;;;;;;24.38;14.35;;;;;;;20.49;70.64;101306.09;4971873;28;20133;-77
2022/09/12 08:54:32;;;;;;;25.63;13.65;;;;;;;20.80;70.91;101305.38;4989529;28;20026;-76
2022/09/12 08:57:02;;;;;;;23.00;12.88;;;;;;;20.94;70.20;101314.00;4997697;28;20030;-76
2022/09/12 08:59:37;;;;;;;27.60;14.35;;;;;;;21.42;68.32;101308.19;4988135;28;20027;-76
2022/09/12 09:02:17;;;;;;;22.00;12.93;;;;;;;22.07;67.06;101305.13;4987847;28;20042;-76
2022/09/12 09:04:58;;;;;;;27.95;13.25;;;;;;;22.38;65.17;101298.13;4985897;28;20530;-76
2022/09/12 09:07:58;;;;;;;24.48;13.82;;;;;;;22.52;64.72;101304.81;4988812;28;20555;-77
2022/09/12 09:10:41;;;;;;;20.25;13.02;;;;;;;22.55;65.24;101304.38;4988656;28;20064;-76
2022/09/12 09:14:46;;;;;;;24.48;14.35;;;;;;;22.73;63.62;101294.78;4986222;28;20043;-76
2022/09/12 09:16:21;;;;;;;21.42;12.38;;;;;;;22.73;65.72;101302.72;4980705;28;20407;-76
2022/09/12 09:18:47;;;;;;;21.92;11.98;;;;;;;22.78;63.32;101302.88;4984559;28;20479;-76
2022/09/12 09:21:31;;;;;;;23.45;13.50;;;;;;;22.44;62.58;101299.06;4985583;28;20039;-76
2022/09/12 09:24:10;;;;;;;21.95;12.25;;;;;;;22.46;62.51;101287.22;4979030;28;20037;-76
2022/09/12 09:26:51;;;;;;;19.88;10.95;;;;;;;22.38;65.27;101290.19;4983419;28;20752;-76
2022/09/12 09:29:19;;;;;;;21.55;11.93;;;;;;;22.50;64.08;101287.59;4982011;28;20085;-77
2022/09/12 09:31:51;;;;;;;24.60;11.80;;;;;;;22.49;62.80;101289.44;4985472;28;20064;-76
2022/09/12 09:34:23;;;;;;;17.47;11.40;;;;;;;22.43;63.38;101287.66;4982654;28;20125;-76
2022/09/12 09:37:24;;;;;;;21.95;11.85;;;;;;;22.57;62.00;101280.38;4969889;28;20560;-76
2022/09/12 09:40:21;;;;;;;15.63;9.32;;;;;;;22.88;63.20;101281.16;4983423;28;20038;-76
2022/09/12 09:43:07;;;;;;;15.95;10.88;;;;;;;23.00;61.70;101265.31;4986714;28;20038;-76
2022/09/12 09:45:32;;;;;;;18.60;12.38;;;;;;;23.08;60.59;101273.75;4984272;28;20034;-76
2022/09/12 09:48:16;;;;;;;19.08;11.13;;;;;;;22.94;59.86;101270.50;4987248;28;20349;-76
2022/09/12 09:50:46;;;;;;;14.50;9.43;;;;;;;22.99;61.60;101264.53;4983372;28;20072;-76
2022/09/12 09:53:25;;;;;;;15.38;9.90;;;;;;;22.94;63.06;101265.22;4973962;28;20117;-76
2022/09/12 09:55:54;;;;;;;15.35;9.73;;;;;;;23.18;63.43;101267.09;4988543;28;20042;-76
2022/09/12 09:58:34;;;;;;;13.88;10.55;;;;;;;23.27;60.73;101271.03;4990170;28;20042;-76
2022/09/12 10:01:14;;;;;;;15.10;9.57;;;;;;;23.38;60.61;101261.50;4987241;28;20384;-76
2022/09/12 10:03:53;;;;;;;12.05;8.57;;;;;;;23.34;59.35;101263.78;4988742;28;20495;-76
2022/09/12 10:06:19;;;;;;;19.50;10.10;;;;;;;23.42;58.37;101265.28;4982883;28;20049;-75
2022/09/12 10:08:47;;;;;;;15.20;9.27;;;;;;;23.39;60.03;101255.94;4987459;28;20105;-76
2022/09/12 10:11:15;;;;;;;16.35;10.45;;;;;;;23.44;61.60;101256.06;4984350;28;20129;-76
2022/09/12 10:13:52;;;;;;;19.38;9.65;;;;;;;23.46;58.05;101251.34;4987343;28;20050;-76
2022/09/12 10:16:39;;;;;;;15.45;9.40;;;;;;;23.49;60.00;101240.31;4981801;28;20491;-76
2022/09/12 10:19:23;;;;;;;15.07;9.55;;;;;;;23.41;60.14;101243.28;4979919;28;20439;-76
2022/09/12 10:21:54;;;;;;;12.75;9.00;;;;;;;23.47;59.48;101245.03;4988088;28;20046;-77
2022/09/12 10:24:31;;;;;;;12.68;8.38;;;;;;;23.61;59.65;101239.50;4986686;28;20057;-76
2022/09/12 10:27:04;;;;;;;15.25;9.35;;;;;;;23.72;58.53;101238.69;4982222;28;20108;-77
2022/09/12 10:29:32;;;;;;;19.17;8.45;;;;;;;23.69;59.46;101232.00;4983977;28;20030;-76
2022/09/12 10:32:07;;;;;;;12.55;6.20;;;;;;;23.74;56.23;101225.22;4987155;28;20046;-76
2022/09/12 10:34:41;;;;;;;11.38;6.43;;;;;;;23.69;56.15;101217.97;4989103;28;20029;-76
2022/09/12 10:37:28;;;;;;;12.10;7.18;;;;;;;23.93;58.37;101217.94;4988069;28;20039;-76
2022/09/12 10:39:56;;;;;;;9.40;5.15;;;;;;;23.88;57.20;101214.16;4984050;28;20484;-76
2022/09/12 10:42:43;;;;;;;7.22;4.30;;;;;;;23.84;57.42;101212.19;4986582;28;20034;-76
2022/09/12 10:45:19;;;;;;;9.75;4.20;;;;;;;23.91;55.16;101202.28;4983074;28;20507;-76
2022/09/12 10:47:45;;;;;;;12.75;6.45;;;;;;;23.90;56.80;101206.78;4981608;28;20051;-76
2022/09/12 10:50:41;;;;;;;10.60;5.90;;;;;;;24.20;57.29;101212.88;4987305;28;20047;-75
2022/09/12 10:53:28;;;;;;;9.13;5.72;;;;;;;24.31;56.09;101214.69;4985598;28;20434;-76
2022/09/12 10:56:15;;;;;;;8.55;5.07;;;;;;;24.26;55.96;101206.63;4983131;28;20042;-76
2022/09/12 10:58:43;;;;;;;7.75;3.05;;;;;;;24.31;51.39;101203.28;4982620;28;20045;-76
2022/09/12 11:01:22;;;;;;;4.93;3.28;;;;;;;24.17;53.66;101195.63;4963391;28;20034;-77
2022/09/12 11:04:14;;;;;;;5.78;3.28;;;;;;;24.29;54.01;101195.56;4988762;28;20038;-77
2022/09/12 11:07:17;;;;;;;6.20;3.35;;;;;;;24.42;52.95;101191.81;4987348;28;20084;-76
2022/09/12 11:10:09;;;;;;;10.10;3.05;;;;;;;24.58;54.28;101185.78;4962638;28;20122;-76
2022/09/12 11:12:46;;;;;;;6.20;4.40;;;;;;;24.55;52.21;101191.53;4985337;28;20072;-78
2022/09/12 11:15:39;;;;;;;7.18;4.25;;;;;;;24.39;51.47;101179.88;4964138;28;20556;-76
2022/09/12 11:18:15;;;;;;;4.30;3.50;;;;;;;24.35;52.61;101173.41;4988357;28;20050;-76
2022/09/12 11:21:12;;;;;;;6.90;3.95;;;;;;;24.63;52.12;101179.72;4990034;28;20478;-76
2022/09/12 11:24:01;;;;;;;4.78;3.58;;;;;;;24.69;51.55;101170.81;4983836;28;20065;-78
2022/09/12 11:26:41;;;;;;;7.60;4.00;;;;;;;24.82;50.52;101165.19;4975759;28;20455;-75
2022/09/12 11:29:30;;;;;;;8.93;4.57;;;;;;;24.83;50.23;101166.00;4991124;28;20038;-76